Time;durP1;ratioP1;P1;durP2;ratioP2;P2;SDS_P1;SDS_P2;PMS_P1;PMS_P2;Temp;Humidity;BMP_temperature;BMP_pressure;BME280_temperature;BME280_humidity;BME280_pressure;Samples;Min_cycle;Max_cycle;Signal;HPM_P1;HPM_P2
2022/06/18 00:00:16;;;;;;;4.18;0.08;;;23.20;93.80;;;;;;5076708;28;20027;-71
2022/06/18 00:02:42;;;;;;;3.05;0.63;;;23.10;93.80;;;;;;5076617;28;20513;-72
2022/06/18 00:05:11;;;;;;;0.47;0.20;;;23.00;94.90;;;;;;5076310;28;20017;-71
2022/06/18 00:07:40;;;;;;;1.05;0.20;;;23.00;94.30;;;;;;5076453;28;20390;-71
2022/06/18 00:10:09;;;;;;;2.40;0.17;;;23.00;94.40;;;;;;5074867;28;20043;-71
2022/06/18 00:15:24;;;;;;;1.02;0.22;;;23.00;94.30;;;;;;5076932;28;20039;-72
2022/06/18 00:17:50;;;;;;;2.80;0.40;;;23.00;94.50;;;;;;5076058;28;20033;-74
2022/06/18 00:20:18;;;;;;;1.05;0.40;;;22.90;95.00;;;;;;5075935;28;20017;-74
2022/06/18 00:22:48;;;;;;;2.60;0.25;;;22.90;95.20;;;;;;5074694;28;20116;-74
2022/06/18 00:25:30;;;;;;;6.60;1.17;;;22.80;94.80;;;;;;5076022;28;20060;-75
2022/06/18 00:27:56;;;;;;;4.35;1.05;;;22.80;95.40;;;;;;5074570;28;20029;-75
2022/06/18 00:30:23;;;;;;;2.83;0.55;;;22.80;94.90;;;;;;5075986;28;20104;-75
2022/06/18 00:32:49;;;;;;;1.00;0.40;;;22.80;95.20;;;;;;5076492;28;20075;-75
2022/06/18 00:35:16;;;;;;;1.15;0.60;;;22.70;95.20;;;;;;5074917;28;20125;-75
2022/06/18 00:37:45;;;;;;;2.88;0.50;;;22.70;95.20;;;;;;5075640;28;20047;-75
2022/06/18 00:40:18;;;;;;;6.22;0.32;;;23.00;96.20;;;;;;5076158;28;20017;-75
2022/06/18 00:42:44;;;;;;;2.80;0.40;;;22.60;95.80;;;;;;5074720;28;20081;-75
2022/06/18 00:45:15;;;;;;;3.05;0.40;;;22.60;96.00;;;;;;5075727;28;20107;-75
2022/06/18 00:47:55;;;;;;;1.35;0.20;;;22.50;96.80;;;;;;5075512;28;20032;-75
2022/06/18 00:50:32;;;;;;;3.70;0.40;;;22.40;96.20;;;;;;5075427;28;20082;-75
2022/06/18 00:53:21;;;;;;;4.32;0.60;;;22.40;96.70;;;;;;5075512;28;20037;-75
2022/06/18 00:56:00;;;;;;;1.80;0.68;;;22.30;97.10;;;;;;5075241;28;20021;-75
2022/06/18 00:58:34;;;;;;;3.50;0.60;;;22.20;97.10;;;;;;5075659;28;20031;-75
2022/06/18 01:01:01;;;;;;;1.33;0.30;;;22.10;98.10;;;;;;5075421;28;20032;-75
2022/06/18 01:03:28;;;;;;;3.10;0.65;;;22.20;97.50;;;;;;5074081;28;20508;-75
2022/06/18 01:05:55;;;;;;;2.53;0.20;;;22.10;98.00;;;;;;5076882;28;20096;-74
2022/06/18 01:08:23;;;;;;;0.50;0.20;;;22.00;98.20;;;;;;5075567;28;20035;-74
2022/06/18 01:10:53;;;;;;;5.00;0.43;;;21.90;98.60;;;;;;5074376;28;20021;-74
2022/06/18 01:13:23;;;;;;;1.77;0.50;;;21.90;99.10;;;;;;5075526;28;20016;-74
2022/06/18 01:15:51;;;;;;;0.75;0.20;;;21.90;98.90;;;;;;5076037;28;20038;-74
2022/06/18 01:18:18;;;;;;;2.88;0.35;;;21.80;99.40;;;;;;5075188;28;20111;-75
2022/06/18 01:20:59;;;;;;;3.53;0.20;;;21.80;99.90;;;;;;5075448;28;20119;-74
2022/06/18 01:23:38;;;;;;;1.70;0.40;;;21.70;99.60;;;;;;5074942;28;20088;-74
2022/06/18 01:26:05;;;;;;;0.90;0.28;;;21.70;99.80;;;;;;5075319;28;20020;-74
2022/06/18 01:28:30;;;;;;;2.22;0.25;;;21.60;99.90;;;;;;5073542;28;20575;-74
2022/06/18 01:30:56;;;;;;;3.65;0.60;;;21.60;99.90;;;;;;5075293;28;20024;-74
2022/06/18 01:33:21;;;;;;;4.03;1.08;;;21.60;99.90;;;;;;5073453;28;20485;-74
2022/06/18 01:35:51;;;;;;;2.38;0.55;;;21.60;99.90;;;;;;5075152;28;20025;-75
2022/06/18 01:38:17;;;;;;;2.40;1.02;;;21.60;99.90;;;;;;5073780;28;20032;-75
2022/06/18 01:43:48;;;;;;;5.35;0.70;;;21.50;99.90;;;;;;5075414;28;20059;-75
2022/06/18 01:46:13;;;;;;;3.95;0.85;;;21.50;99.90;;;;;;5074637;28;20028;-74
2022/06/18 01:48:41;;;;;;;2.83;0.85;;;21.50;99.90;;;;;;5075098;28;20020;-74
2022/06/18 01:51:12;;;;;;;4.20;1.05;;;21.50;99.90;;;;;;5083325;22;20036;-75
2022/06/18 01:53:42;;;;;;;7.35;0.80;;;21.60;99.90;;;;;;5074137;28;20024;-74
2022/06/18 01:56:16;;;;;;;1.45;0.70;;;21.50;99.90;;;;;;5074076;28;20024;-75
2022/06/18 01:58:48;;;;;;;3.33;1.10;;;21.40;99.90;;;;;;5056521;28;20495;-75
2022/06/18 02:01:20;;;;;;;6.35;0.63;;;21.40;99.90;;;;;;5074082;28;20017;-75
2022/06/18 02:03:46;;;;;;;2.40;0.60;;;21.40;99.90;;;;;;5056115;28;20020;-75
2022/06/18 02:06:12;;;;;;;3.95;0.77;;;21.30;99.90;;;;;;5074144;28;20150;-75
2022/06/18 02:08:37;;;;;;;2.03;0.70;;;21.20;99.90;;;;;;5074124;28;20443;-75
2022/06/18 02:11:06;;;;;;;2.38;0.80;;;21.10;99.90;;;;;;5073834;28;20028;-75
2022/06/18 02:13:42;;;;;;;5.65;1.02;;;21.00;99.90;;;;;;5055884;28;20024;-75
2022/06/18 02:16:15;;;;;;;5.05;0.77;;;21.00;99.90;;;;;;5073758;28;20016;-75
2022/06/18 02:18:43;;;;;;;1.25;0.70;;;20.90;99.90;;;;;;5073672;28;20035;-75
2022/06/18 02:21:12;;;;;;;3.05;0.75;;;20.90;99.90;;;;;;5055885;28;20043;-75
2022/06/18 02:23:38;;;;;;;5.90;1.20;;;20.80;99.90;;;;;;5055730;28;20103;-77
2022/06/18 02:26:06;;;;;;;4.05;1.15;;;20.70;99.90;;;;;;5055595;28;20078;-75
2022/06/18 02:28:42;;;;;;;4.25;0.70;;;20.60;99.90;;;;;;5074093;28;20390;-75
2022/06/18 02:31:16;;;;;;;5.28;0.55;;;20.60;99.90;;;;;;5073651;28;20024;-75
2022/06/18 02:33:49;;;;;;;5.00;0.70;;;20.50;99.90;;;;;;5073937;28;20432;-77
2022/06/18 02:36:24;;;;;;;3.95;1.15;;;20.50;99.90;;;;;;5055657;28;20056;-76
2022/06/18 02:38:57;;;;;;;5.85;1.05;;;20.40;99.90;;;;;;5073444;28;20024;-77
2022/06/18 02:41:24;;;;;;;2.63;0.70;;;20.40;99.90;;;;;;5055578;28;20473;-77
2022/06/18 02:43:50;;;;;;;2.95;0.93;;;20.30;99.90;;;;;;5073678;28;20013;-77
2022/06/18 02:46:16;;;;;;;4.80;1.02;;;20.20;99.90;;;;;;5055377;28;20090;-76
2022/06/18 02:48:43;;;;;;;5.65;1.10;;;20.30;99.90;;;;;;5073887;28;20031;-77
2022/06/18 02:51:12;;;;;;;3.63;1.00;;;20.30;99.90;;;;;;5073178;28;20040;-77
2022/06/18 02:53:37;;;;;;;1.90;0.90;;;20.20;99.90;;;;;;5055329;28;20021;-78
2022/06/18 02:56:07;;;;;;;4.63;0.75;;;20.10;99.90;;;;;;5073251;28;20093;-77
2022/06/18 02:58:42;;;;;;;3.00;0.80;;;20.00;99.90;;;;;;5073243;28;20036;-74
2022/06/18 03:01:14;;;;;;;3.65;1.02;;;19.90;99.90;;;;;;5073903;28;20008;-74
2022/06/18 03:03:42;;;;;;;4.03;1.25;;;19.90;99.90;;;;;;5073734;28;20099;-74
2022/06/18 03:06:09;;;;;;;6.25;0.88;;;19.80;99.90;;;;;;5073212;28;20025;-74
2022/06/18 03:08:37;;;;;;;1.25;1.00;;;19.80;99.90;;;;;;5073392;28;20036;-75
2022/06/18 03:13:48;;;;;;;2.20;0.85;;;19.70;99.90;;;;;;5073505;28;20043;-75
2022/06/18 03:16:16;;;;;;;3.78;1.30;;;19.60;99.90;;;;;;5073386;28;20024;-74
2022/06/18 03:18:43;;;;;;;2.67;1.10;;;19.60;99.90;;;;;;5055069;28;20508;-75
2022/06/18 03:21:18;;;;;;;5.70;1.40;;;19.50;99.90;;;;;;5073289;28;20024;-75
2022/06/18 03:23:44;;;;;;;2.53;1.27;;;19.50;99.90;;;;;;5073009;28;20020;-74
2022/06/18 03:26:10;;;;;;;4.53;1.70;;;19.40;99.90;;;;;;5072928;28;20393;-74
2022/06/18 03:28:36;;;;;;;4.63;1.20;;;19.30;99.90;;;;;;5073532;28;20029;-74
2022/06/18 03:31:02;;;;;;;3.08;1.70;;;19.20;99.90;;;;;;5072994;28;20043;-75
2022/06/18 03:33:28;;;;;;;5.07;1.40;;;19.20;99.90;;;;;;5072917;28;20094;-75
2022/06/18 03:35:54;;;;;;;2.88;1.30;;;19.10;99.90;;;;;;5055751;28;20016;-75
2022/06/18 03:38:20;;;;;;;3.78;1.48;;;19.00;99.90;;;;;;5073026;28;20020;-75
2022/06/18 03:40:51;;;;;;;3.10;1.52;;;18.90;99.90;;;;;;5054864;28;20020;-75
2022/06/18 03:43:21;;;;;;;6.75;1.35;;;18.90;99.90;;;;;;5072840;28;20027;-75
2022/06/18 03:45:50;;;;;;;2.30;1.70;;;18.90;99.90;;;;;;5073017;28;20469;-75
2022/06/18 03:48:30;;;;;;;4.45;1.42;;;18.90;99.90;;;;;;5054840;28;20493;-75
2022/06/18 03:50:56;;;;;;;4.85;1.67;;;18.90;99.90;;;;;;5072818;28;20040;-75
2022/06/18 03:53:21;;;;;;;4.47;1.63;;;18.90;99.90;;;;;;5072825;28;20024;-75
2022/06/18 03:55:47;;;;;;;3.38;1.30;;;18.80;99.90;;;;;;5054625;28;20538;-75
2022/06/18 03:58:14;;;;;;;4.95;1.35;;;18.80;99.90;;;;;;5072666;28;20029;-75
2022/06/18 04:00:40;;;;;;;5.07;1.70;;;18.80;99.90;;;;;;5072963;28;20020;-75
2022/06/18 04:03:06;;;;;;;8.93;1.80;;;18.90;99.90;;;;;;5076451;28;20024;-75
2022/06/18 04:05:34;;;;;;;5.95;1.58;;;19.00;99.90;;;;;;5076235;28;20492;-75
2022/06/18 04:08:00;;;;;;;6.07;2.08;;;19.00;99.90;;;;;;5076244;28;20037;-75
2022/06/18 04:10:26;;;;;;;7.03;2.03;;;19.00;99.90;;;;;;5076355;28;20499;-75
2022/06/18 04:12:51;;;;;;;5.75;1.50;;;19.00;99.90;;;;;;5076221;28;20035;-74
2022/06/18 04:15:19;;;;;;;5.70;1.70;;;19.00;99.90;;;;;;5076073;28;20028;-74
2022/06/18 04:17:45;;;;;;;6.57;1.67;;;18.90;99.90;;;;;;5057902;28;20024;-74
2022/06/18 04:20:24;;;;;;;4.47;1.77;;;19.00;99.90;;;;;;5076005;28;20025;-74
2022/06/18 04:22:50;;;;;;;7.75;1.55;;;19.00;99.90;;;;;;5058070;28;20115;-74
2022/06/18 04:25:16;;;;;;;7.00;2.08;;;19.10;99.90;;;;;;5076187;28;20044;-74
2022/06/18 04:27:42;;;;;;;7.10;1.77;;;19.10;99.90;;;;;;5057872;28;20028;-74
2022/06/18 04:30:08;;;;;;;12.35;2.35;;;19.20;99.90;;;;;;5075897;28;20025;-74
2022/06/18 04:32:36;;;;;;;2.83;1.63;;;19.20;99.90;;;;;;5075697;28;20024;-74
2022/06/18 04:35:03;;;;;;;4.00;1.30;;;19.20;99.90;;;;;;5075800;28;20487;-74
2022/06/18 04:37:29;;;;;;;7.70;2.20;;;19.20;99.90;;;;;;5076383;28;20031;-74
2022/06/18 04:39:54;;;;;;;6.80;2.67;;;19.20;99.90;;;;;;5075640;28;20107;-74
2022/06/18 04:42:20;;;;;;;7.13;2.20;;;19.30;99.90;;;;;;5075686;28;20025;-75
2022/06/18 04:44:45;;;;;;;7.40;2.05;;;19.30;99.90;;;;;;5075827;28;20023;-75
2022/06/18 04:47:11;;;;;;;11.50;2.95;;;19.40;99.90;;;;;;5075497;28;20021;-75
2022/06/18 04:49:37;;;;;;;6.13;2.53;;;19.60;99.90;;;;;;5075514;28;20046;-75
2022/06/18 04:52:03;;;;;;;12.80;2.65;;;19.50;99.90;;;;;;5075272;28;20040;-76
2022/06/18 04:54:28;;;;;;;16.00;2.85;;;19.60;99.90;;;;;;5057434;28;20489;-76
2022/06/18 04:56:54;;;;;;;6.20;2.35;;;19.60;99.90;;;;;;5075245;28;20031;-75
2022/06/18 04:59:20;;;;;;;7.05;1.77;;;19.70;99.90;;;;;;5075257;28;20036;-75
2022/06/18 05:01:57;;;;;;;7.53;2.10;;;19.80;99.90;;;;;;5075775;28;20028;-75
2022/06/18 05:04:22;;;;;;;11.15;2.83;;;19.90;99.90;;;;;;5075986;28;20040;-74
2022/06/18 05:06:48;;;;;;;6.38;2.40;;;19.90;99.90;;;;;;5057111;28;20481;-74
2022/06/18 05:09:13;;;;;;;12.48;2.88;;;20.00;99.90;;;;;;5075126;28;20473;-75
2022/06/18 05:11:39;;;;;;;7.57;2.78;;;20.00;99.90;;;;;;5057186;28;20550;-75
2022/06/18 05:14:04;;;;;;;6.97;2.35;;;20.00;99.90;;;;;;5074311;28;20029;-75
2022/06/18 05:16:30;;;;;;;6.82;1.75;;;20.70;99.90;;;;;;5074824;28;20021;-75
2022/06/18 05:18:56;;;;;;;7.82;2.33;;;20.00;99.90;;;;;;5074962;28;20082;-75
2022/06/18 05:21:21;;;;;;;16.58;3.67;;;20.10;99.90;;;;;;5074979;28;20048;-75
2022/06/18 05:23:47;;;;;;;8.25;2.33;;;20.20;99.90;;;;;;5056942;28;20021;-75
2022/06/18 05:26:15;;;;;;;4.25;2.15;;;20.30;99.90;;;;;;5074639;28;20035;-75
2022/06/18 05:28:41;;;;;;;7.65;2.83;;;20.30;99.90;;;;;;5074702;28;20024;-75
2022/06/18 05:31:06;;;;;;;6.60;1.80;;;20.50;99.90;;;;;;5074572;28;20046;-75
2022/06/18 05:33:32;;;;;;;8.25;2.85;;;20.50;99.90;;;;;;5074605;28;20099;-75
2022/06/18 05:35:57;;;;;;;9.02;1.95;;;20.60;99.90;;;;;;5074983;28;20029;-75
2022/06/18 05:38:24;;;;;;;7.40;1.92;;;20.70;99.90;;;;;;5074755;28;20024;-75
2022/06/18 05:40:50;;;;;;;6.47;1.60;;;20.70;99.90;;;;;;5074486;28;20373;-75
2022/06/18 05:43:15;;;;;;;9.55;2.35;;;20.80;99.90;;;;;;5074859;28;20085;-75
2022/06/18 05:45:42;;;;;;;14.00;3.33;;;20.90;99.90;;;;;;5074278;28;20044;-71
2022/06/18 05:48:08;;;;;;;8.13;2.47;;;21.00;99.90;;;;;;5074350;28;20048;-70
2022/06/18 05:50:34;;;;;;;17.60;3.33;;;21.00;99.90;;;;;;5074359;28;20397;-71
2022/06/18 05:52:59;;;;;;;9.07;2.42;;;21.10;99.90;;;;;;5074210;28;20021;-71
2022/06/18 05:55:25;;;;;;;9.00;3.25;;;21.10;99.90;;;;;;5056230;28;20082;-71
2022/06/18 05:57:54;;;;;;;14.32;2.60;;;21.20;99.90;;;;;;5056047;28;20492;-71
2022/06/18 06:00:26;;;;;;;10.40;2.13;;;21.20;99.90;;;;;;5056203;28;20028;-71
2022/06/18 06:02:51;;;;;;;11.55;3.08;;;21.30;99.90;;;;;;5056221;28;20385;-71
2022/06/18 06:05:17;;;;;;;10.88;2.47;;;21.40;99.90;;;;;;5073980;28;20019;-71
2022/06/18 06:07:44;;;;;;;10.43;2.42;;;21.40;99.90;;;;;;5073890;28;20485;-70
2022/06/18 06:13:04;;;;;;;8.15;2.83;;;21.60;99.90;;;;;;5074735;28;20035;-71
2022/06/18 06:15:30;;;;;;;9.40;3.13;;;21.80;99.90;;;;;;5055902;28;20032;-71
2022/06/18 06:17:56;;;;;;;10.02;3.25;;;21.80;99.90;;;;;;5073571;28;20453;-70
2022/06/18 06:20:33;;;;;;;12.20;2.97;;;21.80;99.90;;;;;;5073715;28;20063;-71
2022/06/18 06:22:59;;;;;;;9.65;3.72;;;21.80;99.90;;;;;;5073715;28;20074;-71
2022/06/18 06:25:25;;;;;;;6.80;2.92;;;21.90;99.90;;;;;;5073363;28;20020;-71
2022/06/18 06:27:51;;;;;;;7.50;3.13;;;21.90;99.90;;;;;;5074631;28;20033;-71
2022/06/18 06:30:17;;;;;;;8.30;3.08;;;21.90;99.90;;;;;;5055733;28;20070;-71
2022/06/18 06:32:44;;;;;;;9.18;2.90;;;21.90;99.90;;;;;;5073524;28;20032;-71
2022/06/18 06:35:10;;;;;;;11.77;3.05;;;21.90;99.90;;;;;;5073516;28;20470;-71
2022/06/18 06:37:36;;;;;;;12.43;3.83;;;21.90;99.90;;;;;;5073836;28;20024;-71
2022/06/18 06:40:02;;;;;;;9.30;2.80;;;21.90;99.90;;;;;;5073408;28;20104;-71
2022/06/18 06:42:28;;;;;;;6.53;2.35;;;22.00;99.90;;;;;;5073634;28;20028;-71
2022/06/18 06:44:54;;;;;;;8.85;2.92;;;22.00;99.90;;;;;;5073589;28;20458;-72
2022/06/18 06:47:20;;;;;;;11.00;3.17;;;22.20;99.90;;;;;;5055351;28;20024;-71
2022/06/18 06:49:46;;;;;;;10.52;2.47;;;22.20;99.90;;;;;;5073416;28;20028;-71
2022/06/18 06:52:11;;;;;;;8.93;2.83;;;22.30;99.90;;;;;;5055510;28;20086;-71
2022/06/18 06:54:37;;;;;;;14.65;2.42;;;22.50;99.90;;;;;;5073457;28;20408;-71
2022/06/18 06:57:21;;;;;;;6.25;2.75;;;22.60;99.90;;;;;;5055177;28;20029;-71
2022/06/18 06:59:47;;;;;;;8.27;3.25;;;22.70;99.90;;;;;;5073811;28;20052;-70
2022/06/18 07:02:18;;;;;;;10.75;3.50;;;22.70;99.90;;;;;;5073454;28;20070;-71
2022/06/18 07:04:43;;;;;;;8.00;2.90;;;22.80;99.90;;;;;;5055454;28;20090;-71
2022/06/18 07:07:13;;;;;;;11.82;3.08;;;22.80;99.90;;;;;;5055145;28;20486;-71
2022/06/18 07:09:39;;;;;;;12.20;3.97;;;22.90;99.90;;;;;;5055220;28;20462;-71
2022/06/18 07:12:06;;;;;;;7.25;2.67;;;23.00;99.90;;;;;;5073198;28;20146;-71
2022/06/18 07:14:32;;;;;;;10.57;2.80;;;23.00;99.90;;;;;;5074163;28;20343;-71
2022/06/18 07:16:58;;;;;;;10.32;2.95;;;23.20;99.90;;;;;;5072958;28;20021;-70
2022/06/18 07:19:25;;;;;;;7.78;2.20;;;23.30;99.90;;;;;;5073373;28;20032;-71
2022/06/18 07:21:51;;;;;;;8.35;3.25;;;23.40;99.90;;;;;;5055071;28;20021;-71
2022/06/18 07:24:17;;;;;;;7.47;2.75;;;23.40;99.90;;;;;;5055277;28;20170;-70
2022/06/18 07:26:43;;;;;;;16.20;3.25;;;23.40;99.90;;;;;;5073528;28;20029;-72
2022/06/18 07:29:09;;;;;;;9.93;2.83;;;23.60;99.90;;;;;;5073043;28;20024;-73
2022/06/18 07:31:35;;;;;;;10.77;3.17;;;23.60;99.90;;;;;;5073068;28;20036;-74
2022/06/18 07:34:03;;;;;;;7.80;2.78;;;23.70;99.90;;;;;;5073194;28;20034;-75
2022/06/18 07:36:30;;;;;;;9.60;2.95;;;23.80;99.90;;;;;;5056212;28;20039;-76
2022/06/18 07:38:56;;;;;;;19.30;3.60;;;23.80;99.90;;;;;;5077268;28;20414;-76
2022/06/18 07:41:26;;;;;;;10.98;2.20;;;23.80;99.90;;;;;;5058922;28;20040;-76
2022/06/18 07:43:55;;;;;;;8.95;2.42;;;24.00;99.90;;;;;;5076971;28;20374;-75
2022/06/18 07:46:21;;;;;;;10.35;4.03;;;24.10;99.90;;;;;;5076564;28;20021;-76
2022/06/18 07:48:47;;;;;;;11.85;3.38;;;24.20;99.90;;;;;;5058895;28;20078;-76
2022/06/18 07:51:15;;;;;;;13.35;3.08;;;24.20;99.90;;;;;;5076645;28;20028;-77
2022/06/18 07:53:42;;;;;;;16.73;2.72;;;24.20;99.90;;;;;;5076834;28;20359;-77
2022/06/18 07:56:08;;;;;;;11.38;3.40;;;24.30;99.90;;;;;;5076900;28;20021;-73
2022/06/18 07:58:34;;;;;;;15.85;3.25;;;24.30;99.90;;;;;;5058425;28;20020;-74
2022/06/18 08:01:00;;;;;;;14.10;3.22;;;24.30;99.90;;;;;;5076465;28;20016;-75
2022/06/18 08:03:26;;;;;;;5.55;2.10;;;24.40;99.90;;;;;;5076276;28;20024;-75
2022/06/18 08:05:53;;;;;;;9.85;1.77;;;24.50;99.90;;;;;;5058082;28;20021;-75
2022/06/18 08:08:19;;;;;;;7.47;1.20;;;24.70;99.90;;;;;;5076524;28;20465;-75
2022/06/18 08:10:50;;;;;;;4.93;1.83;;;24.80;99.90;;;;;;5076104;28;20029;-76
2022/06/18 08:13:16;;;;;;;11.23;2.05;;;24.90;99.90;;;;;;5076261;28;20035;-74
2022/06/18 08:15:42;;;;;;;15.88;3.00;;;25.00;99.90;;;;;;5076077;28;20473;-73
2022/06/18 08:18:08;;;;;;;10.43;2.63;;;25.00;99.90;;;;;;5076290;28;20120;-74
2022/06/18 08:20:35;;;;;;;8.05;1.95;;;24.90;99.90;;;;;;5076122;28;20025;-74
2022/06/18 08:23:01;;;;;;;11.75;2.00;;;24.90;99.90;;;;;;5076090;28;20025;-74
2022/06/18 08:25:39;;;;;;;5.97;1.70;;;25.00;99.90;;;;;;5075936;28;20036;-73
2022/06/18 08:28:09;;;;;;;6.93;1.30;;;25.10;99.90;;;;;;5057964;28;20021;-74
2022/06/18 08:30:35;;;;;;;6.10;1.38;;;25.20;99.90;;;;;;5058173;28;20048;-75
2022/06/18 08:33:01;;;;;;;6.70;1.05;;;25.50;99.90;;;;;;5075875;28;20389;-74
2022/06/18 08:35:26;;;;;;;5.10;1.52;;;25.50;99.90;;;;;;5075760;28;20021;-74
2022/06/18 08:37:53;;;;;;;5.30;2.15;;;25.60;99.90;;;;;;5075537;28;20047;-73
2022/06/18 08:40:37;;;;;;;10.48;1.80;;;25.70;99.90;;;;;;5075579;28;20099;-73
2022/06/18 08:43:14;;;;;;;11.45;3.05;;;25.80;99.90;;;;;;5076005;28;20024;-73
2022/06/18 08:45:45;;;;;;;6.75;1.38;;;25.80;99.90;;;;;;5076142;28;20070;-73
2022/06/18 08:48:38;;;;;;;7.05;1.08;;;25.80;99.90;;;;;;5075212;28;20043;-74
2022/06/18 08:51:51;;;;;;;9.65;2.35;;;26.00;99.90;;;;;;5057997;28;20047;-73
2022/06/18 08:54:34;;;;;;;5.13;1.55;;;26.10;99.90;;;;;;5014161;28;20055;-72
2022/06/18 08:57:32;;;;;;;4.70;1.33;;;26.00;99.90;;;;;;5075177;28;20082;-73
2022/06/18 09:00:21;;;;;;;6.85;1.77;;;25.90;99.90;;;;;;5076154;28;20017;-72
2022/06/18 09:03:27;;;;;;;7.50;2.33;;;26.00;99.90;;;;;;5058006;28;20082;-74
2022/06/18 09:06:04;;;;;;;4.97;1.70;;;26.00;99.90;;;;;;5057518;28;20032;-72
2022/06/18 09:09:05;;;;;;;6.23;1.10;;;26.20;99.90;;;;;;5075892;28;20063;-72
2022/06/18 09:12:01;;;;;;;3.65;1.13;;;26.20;99.90;;;;;;5057428;28;20054;-72
2022/06/18 09:14:33;;;;;;;6.65;2.00;;;26.30;99.90;;;;;;5057173;28;20509;-72
2022/06/18 09:17:15;;;;;;;8.15;0.90;;;26.50;99.90;;;;;;5057013;28;20035;-73
2022/06/18 09:19:44;;;;;;;6.63;1.50;;;26.70;99.90;;;;;;5075718;28;20017;-74
2022/06/18 09:22:17;;;;;;;5.65;1.33;;;26.90;99.90;;;;;;5056990;28;20042;-74
2022/06/18 09:24:49;;;;;;;5.10;1.13;;;26.80;99.70;;;;;;5075353;28;20028;-74
2022/06/18 09:27:25;;;;;;;7.63;1.10;;;26.90;99.50;;;;;;5074621;28;20060;-74
2022/06/18 09:30:12;;;;;;;7.15;0.85;;;27.10;99.90;;;;;;5057349;28;20031;-73
2022/06/18 09:32:52;;;;;;;4.00;1.02;;;27.20;99.90;;;;;;5057847;28;20426;-74
2022/06/18 09:35:21;;;;;;;6.18;1.23;;;27.30;99.00;;;;;;5075256;28;20059;-73
2022/06/18 09:38:22;;;;;;;;;;;27.40;99.50;;;;;;5057237;28;20060;-73
2022/06/18 09:40:55;;;;;;;4.53;0.40;;;27.30;99.10;;;;;;4974334;28;20418;-73
2022/06/18 09:43:49;;;;;;;6.25;0.80;;;27.60;99.90;;;;;;5044465;28;20118;-74
2022/06/18 09:46:33;;;;;;;5.20;0.95;;;27.70;98.70;;;;;;5074939;28;20047;-73
2022/06/18 09:48:58;;;;;;;3.13;0.75;;;28.00;97.60;;;;;;5056739;28;20070;-73
2022/06/18 09:51:36;;;;;;;5.97;0.90;;;28.10;95.20;;;;;;5074251;28;20444;-73
2022/06/18 09:54:04;;;;;;;;;;;28.00;94.40;;;;;;5056885;28;20054;-73
2022/06/18 09:56:36;;;;;;;2.10;0.80;;;28.00;94.20;;;;;;5039708;28;19931;-73
2022/06/18 09:59:12;;;;;;;4.47;0.60;;;28.10;93.90;;;;;;5073425;28;20035;-74
2022/06/18 10:01:42;;;;;;;5.28;0.38;;;28.30;96.00;;;;;;5074090;28;20027;-74
2022/06/18 10:06:58;;;;;;;5.95;0.50;;;28.50;94.00;;;;;;5075154;28;20032;-75
2022/06/18 10:09:56;;;;;;;2.67;0.55;;;28.40;92.90;;;;;;5074698;28;20017;-77
2022/06/18 10:12:25;;;;;;;5.45;1.35;;;28.60;91.20;;;;;;5073366;28;20039;-76
2022/06/18 10:14:56;;;;;;;2.03;0.28;;;28.60;90.20;;;;;;5056637;28;20086;-73
2022/06/18 10:18:06;;;;;;;7.25;1.92;;;28.70;92.80;;;;;;5074636;28;20028;-76
2022/06/18 10:20:55;;;;;;;4.32;0.30;;;28.80;91.40;;;;;;5058616;28;20032;-75
2022/06/18 10:23:52;;;;;;;2.58;0.22;;;29.10;91.30;;;;;;5056221;28;20123;-74
2022/06/18 10:26:39;;;;;;;3.85;1.08;;;29.20;89.80;;;;;;5056252;28;20021;-73
2022/06/18 10:29:17;;;;;;;3.80;0.30;;;29.40;88.20;;;;;;5074816;28;20434;-74
2022/06/18 10:32:11;;;;;;;5.05;0.77;;;29.60;87.70;;;;;;5056021;28;20070;-74
2022/06/18 10:34:54;;;;;;;8.40;0.52;;;29.70;85.90;;;;;;5074820;28;20036;-75
2022/06/18 10:37:29;;;;;;;4.45;0.30;;;29.90;84.30;;;;;;5075323;28;20359;-74
2022/06/18 10:40:00;;;;;;;3.03;0.82;;;30.00;83.30;;;;;;5057273;28;20017;-74
2022/06/18 10:42:32;;;;;;;4.03;0.98;;;30.20;79.10;;;;;;5057360;28;20029;-75
2022/06/18 10:45:29;;;;;;;1.10;0.28;;;30.30;79.80;;;;;;5076067;28;20028;-75
2022/06/18 10:47:55;;;;;;;4.22;0.17;;;30.30;77.60;;;;;;5057322;28;20432;-74
2022/06/18 10:50:22;;;;;;;4.13;0.85;;;30.40;79.60;;;;;;5076360;28;20023;-75
2022/06/18 10:53:04;;;;;;;12.18;0.47;;;30.50;78.90;;;;;;5058587;28;20050;-75
2022/06/18 10:55:30;;;;;;;5.38;0.30;;;30.80;78.10;;;;;;5076249;28;20104;-74
2022/06/18 10:58:10;;;;;;;3.33;0.32;;;30.70;75.30;;;;;;5058912;28;20024;-74
2022/06/18 11:00:36;;;;;;;4.28;0.10;;;30.90;76.40;;;;;;5074148;28;20021;-76
2022/06/18 11:03:15;;;;;;;2.33;0.10;;;31.00;73.30;;;;;;5073346;28;20028;-76
2022/06/18 11:05:45;;;;;;;4.50;0.10;;;31.10;73.20;;;;;;5073939;28;20107;-76
2022/06/18 11:08:25;;;;;;;5.00;0.05;;;31.20;72.60;;;;;;5073847;28;20473;-76
2022/06/18 11:11:09;;;;;;;5.90;0.10;;;31.40;74.50;;;;;;5075180;28;20024;-75
2022/06/18 11:13:41;;;;;;;1.48;0.25;;;31.70;72.70;;;;;;5077450;28;20552;-76
2022/06/18 11:16:25;;;;;;;3.45;0.10;;;31.90;69.80;;;;;;5077207;28;20025;-76
2022/06/18 11:19:00;;;;;;;3.22;0.10;;;32.10;70.30;;;;;;5077257;28;20024;-76
2022/06/18 11:21:33;;;;;;;3.17;0.03;;;32.20;67.90;;;;;;5077296;28;20025;-75
2022/06/18 11:24:11;;;;;;;4.25;0.20;;;32.30;66.00;;;;;;5077154;28;20017;-76
2022/06/18 11:26:43;;;;;;;3.08;0.20;;;31.90;65.00;;;;;;5059023;28;20081;-75
2022/06/18 11:29:40;;;;;;;1.73;0.10;;;32.00;70.10;;;;;;5077499;28;20021;-75
2022/06/18 11:32:11;;;;;;;4.60;0.20;;;32.20;67.20;;;;;;5077202;28;20081;-76
2022/06/18 11:34:44;;;;;;;1.08;0.10;;;32.50;68.10;;;;;;5077033;28;20032;-76
2022/06/18 11:37:19;;;;;;;2.45;0.00;;;32.40;63.90;;;;;;5059446;28;20036;-76
2022/06/18 11:39:54;;;;;;;3.53;0.22;;;32.10;66.60;;;;;;5077035;28;20036;-76
2022/06/18 11:42:49;;;;;;;0.43;0.00;;;32.10;64.50;;;;;;5059326;28;20017;-76
2022/06/18 11:45:34;;;;;;;3.40;0.10;;;32.30;67.30;;;;;;5077129;28;20078;-74
2022/06/18 11:48:26;;;;;;;2.20;0.30;;;32.40;64.00;;;;;;5076738;28;20025;-74
2022/06/18 11:50:57;;;;;;;2.10;0.35;;;31.90;63.50;;;;;;5076990;28;20034;-75
2022/06/18 11:53:48;;;;;;;1.55;0.00;;;31.90;67.80;;;;;;5076741;28;20393;-75
2022/06/18 11:56:21;;;;;;;2.25;0.70;;;31.90;65.90;;;;;;5077350;28;20024;-75
2022/06/18 11:59:20;;;;;;;2.35;0.50;;;32.10;66.80;;;;;;5076780;28;20032;-75
2022/06/18 12:01:53;;;;;;;1.20;0.00;;;32.40;66.10;;;;;;5076728;28;20032;-75
2022/06/18 12:04:21;;;;;;;1.55;0.25;;;32.60;65.40;;;;;;5076640;28;20477;-75
2022/06/18 12:07:01;;;;;;;4.82;0.00;;;32.80;65.30;;;;;;5076749;28;20027;-75
2022/06/18 12:09:29;;;;;;;1.75;0.00;;;33.00;64.00;;;;;;5058773;28;20389;-75
2022/06/18 12:12:01;;;;;;;;;;;33.00;64.60;;;;;;5076911;28;20024;-75
2022/06/18 12:14:39;;;;;;;0.75;0.10;;;33.00;63.30;;;;;;5076694;28;20301;-75
2022/06/18 12:17:15;;;;;;;4.90;0.17;;;33.00;64.50;;;;;;5076214;28;20124;-75
2022/06/18 12:20:06;;;;;;;1.45;0.00;;;32.90;64.70;;;;;;5076446;28;20017;-75
2022/06/18 12:22:45;;;;;;;0.95;0.30;;;33.20;67.00;;;;;;5075690;28;20028;-75
2022/06/18 12:25:25;;;;;;;1.85;0.08;;;33.10;62.20;;;;;;5057960;28;20072;-74
2022/06/18 12:28:10;;;;;;;2.00;0.10;;;33.20;64.80;;;;;;5076304;28;20109;-75
2022/06/18 12:30:45;;;;;;;6.47;0.17;;;33.50;62.90;;;;;;5076436;28;20046;-75
2022/06/18 12:33:19;;;;;;;1.33;0.00;;;33.20;60.40;;;;;;5076476;28;20025;-74
2022/06/18 12:35:56;;;;;;;2.13;0.00;;;33.10;62.40;;;;;;5076541;28;20078;-75
2022/06/18 12:39:00;;;;;;;0.00;0.00;;;33.20;64.20;;;;;;5076234;28;20039;-75
2022/06/18 12:41:43;;;;;;;2.80;0.25;;;33.40;62.40;;;;;;5045780;28;20070;-75
2022/06/18 12:44:27;;;;;;;1.75;0.10;;;33.40;61.60;;;;;;5076109;28;20024;-72
2022/06/18 12:47:24;;;;;;;0.85;0.00;;;33.50;62.30;;;;;;5058004;28;20381;-74
2022/06/18 12:49:55;;;;;;;1.85;0.10;;;33.50;63.10;;;;;;5075964;28;20021;-73
2022/06/18 12:52:55;;;;;;;1.38;0.00;;;33.50;60.10;;;;;;5075587;28;20107;-74
2022/06/18 12:55:59;;;;;;;1.67;0.00;;;33.40;64.10;;;;;;5071199;28;20032;-74
2022/06/18 12:58:41;;;;;;;2.72;0.88;;;33.50;61.50;;;;;;5075609;28;20039;-76
2022/06/18 13:01:40;;;;;;;3.00;0.13;;;33.50;61.70;;;;;;5057735;28;20028;-75
2022/06/18 13:04:33;;;;;;;1.33;0.15;;;33.60;61.00;;;;;;5057340;28;20029;-75
2022/06/18 13:07:16;;;;;;;0.22;0.10;;;33.30;59.00;;;;;;5057204;28;20031;-74
2022/06/18 13:09:53;;;;;;;0.50;0.00;;;33.10;59.60;;;;;;5075605;28;20024;-75
2022/06/18 13:12:52;;;;;;;3.05;0.28;;;32.70;60.00;;;;;;5057205;28;20024;-75
2022/06/18 13:15:28;;;;;;;1.45;0.55;;;32.40;60.50;;;;;;5074337;28;20044;-74
2022/06/18 13:18:06;;;;;;;0.90;0.00;;;32.90;62.80;;;;;;5056572;28;20504;-75
2022/06/18 13:20:39;;;;;;;2.30;0.20;;;33.30;62.30;;;;;;5075004;28;20021;-75
2022/06/18 13:28:10;;;;;;;0.28;0.00;;;33.20;61.40;;;;;;5074668;28;20385;-74
2022/06/18 13:28:42;;;;;;;1.58;0.00;;;33.70;61.70;;;;;;5074804;28;20082;-74